Time;durP1;ratioP1;P1;durP2;ratioP2;P2;SDS_P1;SDS_P2;PMS_P1;PMS_P2;Temp;Humidity;BMP_temperature;BMP_pressure;BME280_temperature;BME280_humidity;BME280_pressure;Samples;Min_cycle;Max_cycle;Signal;HPM_P1;HPM_P2
2023/04/27 00:01:19;;;;;;;0.00;0.00;;;8.10;99.90;;;;;;5090561;28;20199;-60
2023/04/27 00:03:44;;;;;;;0.10;0.10;;;8.10;99.90;;;;;;5090322;28;20205;-60
2023/04/27 00:06:10;;;;;;;0.00;0.00;;;8.10;99.90;;;;;;5089444;28;20180;-60
2023/04/27 00:08:36;;;;;;;0.00;0.00;;;8.00;99.90;;;;;;5090575;28;20173;-60
2023/04/27 00:11:02;;;;;;;0.00;0.00;;;8.00;99.90;;;;;;5090543;28;20273;-60
2023/04/27 00:13:28;;;;;;;0.00;0.00;;;8.00;99.90;;;;;;5096855;28;20613;-60
2023/04/27 00:15:53;;;;;;;0.00;0.00;;;8.00;99.90;;;;;;5090187;28;20553;-60
2023/04/27 00:18:19;;;;;;;0.00;0.00;;;8.00;99.90;;;;;;5090037;28;20198;-59
2023/04/27 00:20:45;;;;;;;0.52;0.52;;;8.00;99.90;;;;;;5090641;28;20655;-59
2023/04/27 00:23:11;;;;;;;0.00;0.00;;;8.00;99.90;;;;;;5090630;28;20695;-59
2023/04/27 00:25:36;;;;;;;0.20;0.20;;;8.00;99.90;;;;;;5090239;28;20208;-60
2023/04/27 00:28:02;;;;;;;0.00;0.00;;;7.90;99.90;;;;;;5090779;28;20180;-59
2023/04/27 00:30:28;;;;;;;0.00;0.00;;;7.90;99.90;;;;;;5090833;28;20164;-60
2023/04/27 00:32:53;;;;;;;0.00;0.00;;;7.90;99.90;;;;;;5090937;28;20187;-59
2023/04/27 00:35:19;;;;;;;0.00;0.00;;;7.90;99.90;;;;;;5090823;28;20183;-59
2023/04/27 00:37:44;;;;;;;0.00;0.00;;;7.90;99.90;;;;;;5088685;28;20183;-60
2023/04/27 00:40:10;;;;;;;0.00;0.00;;;7.90;99.90;;;;;;5090758;28;20619;-59
2023/04/27 00:42:36;;;;;;;0.00;0.00;;;7.80;99.90;;;;;;5089542;28;20188;-59
2023/04/27 00:45:02;;;;;;;0.00;0.00;;;7.80;99.90;;;;;;5089702;28;20216;-60
2023/04/27 00:47:29;;;;;;;0.10;0.10;;;7.80;99.90;;;;;;5089872;28;20719;-59
2023/04/27 00:49:55;;;;;;;0.10;0.10;;;7.70;99.90;;;;;;5093802;28;20651;-60
2023/04/27 00:52:20;;;;;;;0.00;0.00;;;7.70;99.90;;;;;;5093489;28;20179;-60
2023/04/27 00:54:50;;;;;;;0.10;0.10;;;7.70;99.90;;;;;;5093840;28;20569;-59
2023/04/27 00:57:16;;;;;;;0.00;0.00;;;7.70;99.90;;;;;;5093879;28;20219;-59
2023/04/27 00:59:41;;;;;;;0.00;0.00;;;7.70;99.90;;;;;;5094016;28;20180;-59
2023/04/27 01:02:11;;;;;;;0.00;0.00;;;7.60;99.90;;;;;;5093668;28;20242;-59
2023/04/27 01:04:36;;;;;;;0.00;0.00;;;7.60;99.90;;;;;;5093840;28;20576;-59
2023/04/27 01:07:02;;;;;;;0.00;0.00;;;7.50;99.90;;;;;;5093747;28;20176;-59
2023/04/27 01:09:28;;;;;;;0.00;0.00;;;7.50;99.90;;;;;;5093442;28;20204;-59
2023/04/27 01:11:53;;;;;;;0.00;0.00;;;7.40;99.90;;;;;;5093670;28;20173;-59
2023/04/27 01:14:19;;;;;;;0.00;0.00;;;7.40;99.90;;;;;;5093430;28;20160;-59
2023/04/27 01:16:45;;;;;;;0.00;0.00;;;7.30;99.90;;;;;;5093470;28;20184;-59
2023/04/27 01:19:11;;;;;;;0.00;0.00;;;7.30;99.90;;;;;;5093328;28;20172;-59
2023/04/27 01:21:36;;;;;;;0.10;0.10;;;7.20;99.90;;;;;;5093384;28;20194;-59
2023/04/27 01:24:06;;;;;;;0.20;0.20;;;7.20;99.90;;;;;;5093000;28;20650;-59
2023/04/27 01:26:32;;;;;;;0.00;0.00;;;7.10;99.90;;;;;;5093432;28;20184;-59
2023/04/27 01:28:58;;;;;;;0.00;0.00;;;7.10;99.90;;;;;;5099273;28;20271;-59
2023/04/27 01:31:23;;;;;;;0.00;0.00;;;7.00;99.90;;;;;;5093216;28;20190;-59
2023/04/27 01:33:49;;;;;;;0.10;0.10;;;7.00;99.90;;;;;;5093301;28;20202;-59
2023/04/27 01:36:15;;;;;;;0.00;0.00;;;6.90;99.90;;;;;;5093170;28;20172;-59
2023/04/27 01:38:41;;;;;;;0.13;0.13;;;6.90;99.90;;;;;;5093144;28;20168;-59
2023/04/27 01:41:08;;;;;;;0.00;0.00;;;6.90;99.90;;;;;;5087379;28;20191;-59
2023/04/27 01:43:34;;;;;;;0.00;0.00;;;6.80;99.90;;;;;;5086320;28;20179;-59
2023/04/27 01:46:08;;;;;;;0.00;0.00;;;6.80;99.90;;;;;;5093001;28;20212;-59
2023/04/27 01:48:34;;;;;;;0.00;0.00;;;6.70;99.90;;;;;;5092771;28;20179;-59
2023/04/27 01:51:00;;;;;;;0.00;0.00;;;6.70;99.90;;;;;;5089261;28;20176;-66
2023/04/27 01:53:25;;;;;;;0.13;0.13;;;6.70;99.90;;;;;;5092397;28;20222;-59
2023/04/27 01:55:51;;;;;;;0.08;0.08;;;6.60;99.90;;;;;;5092410;28;20176;-59
2023/04/27 01:58:16;;;;;;;0.00;0.00;;;6.60;99.90;;;;;;5091081;28;20180;-59
2023/04/27 02:00:42;;;;;;;0.00;0.00;;;6.60;99.90;;;;;;5091565;28;20271;-58
2023/04/27 02:03:07;;;;;;;0.00;0.00;;;6.50;99.90;;;;;;5091596;28;20255;-58
2023/04/27 02:05:33;;;;;;;0.05;0.05;;;6.50;99.90;;;;;;5092472;28;20218;-59
2023/04/27 02:07:58;;;;;;;0.10;0.10;;;6.40;99.90;;;;;;5092488;28;20270;-58
2023/04/27 02:10:24;;;;;;;0.00;0.00;;;6.40;99.90;;;;;;5092170;28;20171;-58
2023/04/27 02:12:50;;;;;;;0.00;0.00;;;6.40;99.90;;;;;;5092518;28;20172;-58
2023/04/27 02:15:15;;;;;;;0.00;0.00;;;6.40;99.90;;;;;;5092370;28;20631;-58
2023/04/27 02:17:42;;;;;;;0.10;0.10;;;6.40;99.90;;;;;;5091297;28;20248;-59
2023/04/27 02:20:09;;;;;;;0.00;0.00;;;6.40;99.90;;;;;;5090930;28;20187;-58
2023/04/27 02:22:36;;;;;;;0.00;0.00;;;6.40;99.90;;;;;;5092210;28;20168;-58
2023/04/27 02:25:02;;;;;;;0.00;0.00;;;6.30;99.90;;;;;;5092286;28;20239;-58
2023/04/27 02:27:27;;;;;;;0.08;0.08;;;6.30;99.90;;;;;;5092103;28;20218;-58
2023/04/27 02:29:53;;;;;;;0.00;0.00;;;6.30;99.90;;;;;;5092262;28;20176;-58
2023/04/27 02:32:18;;;;;;;0.00;0.00;;;6.30;99.90;;;;;;5092081;28;20176;-58
2023/04/27 02:34:44;;;;;;;0.00;0.00;;;6.30;99.90;;;;;;5092051;28;20195;-58
2023/04/27 02:37:09;;;;;;;0.10;0.10;;;6.30;99.90;;;;;;5091893;28;20180;-58
2023/04/27 02:39:35;;;;;;;0.10;0.10;;;6.30;99.90;;;;;;5091997;28;20172;-59
2023/04/27 02:42:02;;;;;;;0.00;0.00;;;6.30;99.90;;;;;;5091973;28;20172;-59
2023/04/27 02:44:28;;;;;;;0.00;0.00;;;6.40;99.90;;;;;;5091788;28;20216;-59
2023/04/27 02:46:53;;;;;;;0.35;0.35;;;6.40;99.90;;;;;;5091799;28;20172;-59
2023/04/27 02:49:19;;;;;;;0.00;0.00;;;6.40;99.90;;;;;;5091408;28;20619;-59
2023/04/27 02:51:45;;;;;;;0.00;0.00;;;6.40;99.90;;;;;;5091600;28;20509;-59
2023/04/27 02:54:10;;;;;;;0.00;0.00;;;6.40;99.90;;;;;;5091479;28;20266;-59
2023/04/27 02:56:36;;;;;;;0.00;0.00;;;6.40;99.90;;;;;;5091856;28;20255;-59
2023/04/27 02:59:01;;;;;;;0.00;0.00;;;6.40;99.90;;;;;;5091500;28;20631;-59
2023/04/27 03:01:27;;;;;;;0.00;0.00;;;6.40;99.90;;;;;;5090551;28;20219;-60
2023/04/27 03:03:53;;;;;;;0.00;0.00;;;6.40;99.90;;;;;;5090695;28;20180;-59
2023/04/27 03:06:18;;;;;;;0.15;0.15;;;6.40;99.90;;;;;;5090601;28;20192;-59
2023/04/27 03:08:44;;;;;;;0.00;0.00;;;6.40;99.90;;;;;;5090719;28;20180;-59
2023/04/27 03:11:11;;;;;;;0.00;0.00;;;6.30;99.90;;;;;;5079474;28;20230;-59
2023/04/27 03:13:40;;;;;;;0.00;0.00;;;6.30;99.90;;;;;;5090844;28;20202;-59
2023/04/27 03:16:12;;;;;;;0.00;0.00;;;6.30;99.90;;;;;;5090546;28;20222;-59
2023/04/27 03:18:39;;;;;;;0.00;0.00;;;6.30;99.90;;;;;;5090617;28;20245;-59
2023/04/27 03:21:09;;;;;;;0.00;0.00;;;6.30;99.90;;;;;;5090954;28;20266;-59
2023/04/27 03:23:35;;;;;;;0.00;0.00;;;6.20;99.90;;;;;;5090811;28;20221;-59
2023/04/27 03:26:07;;;;;;;0.00;0.00;;;6.20;99.90;;;;;;5090789;28;20788;-59
2023/04/27 03:28:33;;;;;;;0.00;0.00;;;6.20;99.90;;;;;;5090275;28;20259;-60
2023/04/27 03:30:59;;;;;;;0.00;0.00;;;6.20;99.90;;;;;;5090803;28;20242;-59
2023/04/27 03:33:25;;;;;;;0.00;0.00;;;6.20;99.90;;;;;;5090651;28;20183;-59
2023/04/27 03:35:58;;;;;;;0.00;0.00;;;6.20;99.90;;;;;;5090511;28;20187;-60
2023/04/27 03:38:24;;;;;;;0.00;0.00;;;6.20;99.90;;;;;;5090195;28;20180;-60
2023/04/27 03:40:50;;;;;;;0.00;0.00;;;6.20;99.90;;;;;;5081550;28;20204;-60
2023/04/27 03:43:17;;;;;;;0.00;0.00;;;6.20;99.90;;;;;;5089525;28;20191;-59
2023/04/27 03:45:42;;;;;;;0.10;0.10;;;6.20;99.90;;;;;;5089968;28;20231;-60
2023/04/27 03:48:08;;;;;;;0.00;0.00;;;6.20;99.90;;;;;;5089651;28;20630;-59
2023/04/27 03:50:33;;;;;;;0.00;0.00;;;6.20;99.90;;;;;;5089235;28;20187;-61
2023/04/27 03:52:58;;;;;;;0.00;0.00;;;6.20;99.90;;;;;;5089889;28;20188;-62
2023/04/27 03:55:24;;;;;;;0.00;0.00;;;6.30;99.90;;;;;;5089505;28;20192;-60
2023/04/27 03:57:50;;;;;;;0.00;0.00;;;6.30;99.90;;;;;;5089855;28;20191;-63
2023/04/27 04:00:17;;;;;;;0.00;0.00;;;6.20;99.90;;;;;;5089968;28;20731;-63
2023/04/27 04:02:42;;;;;;;0.00;0.00;;;6.20;99.90;;;;;;5090406;28;20199;-63
2023/04/27 04:05:08;;;;;;;0.00;0.00;;;6.20;99.90;;;;;;5089244;28;20290;-63
2023/04/27 04:07:34;;;;;;;0.00;0.00;;;6.20;99.90;;;;;;5089160;28;20204;-63
2023/04/27 04:10:00;;;;;;;0.00;0.00;;;6.20;99.90;;;;;;5089961;28;20639;-63
2023/04/27 04:12:25;;;;;;;0.00;0.00;;;6.20;99.90;;;;;;5090120;28;20167;-63
2023/04/27 04:14:51;;;;;;;0.00;0.00;;;6.20;99.90;;;;;;5090117;28;20182;-59
2023/04/27 04:17:16;;;;;;;0.00;0.00;;;6.20;99.90;;;;;;5089923;28;20263;-60
2023/04/27 04:19:42;;;;;;;0.40;0.40;;;6.30;99.90;;;;;;5089977;28;20258;-58
2023/04/27 04:22:07;;;;;;;0.00;0.00;;;6.30;99.90;;;;;;5089606;28;20164;-59
2023/04/27 04:24:33;;;;;;;0.00;0.00;;;6.30;99.90;;;;;;5092613;28;20277;-59
2023/04/27 04:26:58;;;;;;;0.00;0.00;;;6.30;99.90;;;;;;5093421;28;20176;-59
2023/04/27 04:29:24;;;;;;;0.00;0.00;;;6.30;99.90;;;;;;5093649;28;20203;-59
2023/04/27 04:31:50;;;;;;;0.00;0.00;;;6.40;99.90;;;;;;5093902;28;20639;-59
2023/04/27 04:34:16;;;;;;;0.22;0.22;;;6.40;99.90;;;;;;5093974;28;20172;-59
2023/04/27 04:36:42;;;;;;;0.00;0.00;;;6.40;99.90;;;;;;5093875;28;20617;-59
2023/04/27 04:39:07;;;;;;;0.00;0.00;;;6.40;99.90;;;;;;5093835;28;20172;-59
2023/04/27 04:41:33;;;;;;;0.10;0.10;;;6.40;99.90;;;;;;5093445;28;20511;-59
2023/04/27 04:43:59;;;;;;;0.10;0.10;;;6.40;99.90;;;;;;5093242;28;20191;-59
2023/04/27 04:46:25;;;;;;;0.10;0.10;;;6.40;99.90;;;;;;5093337;28;20237;-58
2023/04/27 04:48:50;;;;;;;0.00;0.00;;;6.50;99.90;;;;;;5093460;28;20176;-59
2023/04/27 04:51:16;;;;;;;0.00;0.00;;;6.50;99.90;;;;;;5093119;28;20500;-59
2023/04/27 04:53:42;;;;;;;0.15;0.15;;;6.50;99.90;;;;;;5093210;28;20210;-60
2023/04/27 04:56:12;;;;;;;0.00;0.00;;;6.50;99.90;;;;;;5093077;28;20172;-61
2023/04/27 04:58:38;;;;;;;0.00;0.00;;;6.60;99.90;;;;;;5092938;28;20169;-61
2023/04/27 05:01:04;;;;;;;0.10;0.10;;;6.60;99.90;;;;;;5080367;28;20222;-61
2023/04/27 05:03:30;;;;;;;0.00;0.00;;;6.70;99.90;;;;;;5072907;28;20177;-61
2023/04/27 05:05:55;;;;;;;0.00;0.00;;;6.70;99.90;;;;;;5072962;28;20218;-60
2023/04/27 05:08:21;;;;;;;0.00;0.00;;;6.70;99.90;;;;;;5072820;28;20173;-61
2023/04/27 05:10:53;;;;;;;0.00;0.00;;;6.70;99.90;;;;;;5073233;28;20173;-60
2023/04/27 05:13:19;;;;;;;0.00;0.00;;;6.80;99.90;;;;;;5072789;28;20212;-59
2023/04/27 05:15:45;;;;;;;0.00;0.00;;;6.80;99.90;;;;;;5072764;28;20173;-59
2023/04/27 05:18:11;;;;;;;0.00;0.00;;;6.90;99.90;;;;;;5072640;28;20254;-58
2023/04/27 05:20:37;;;;;;;0.00;0.00;;;6.90;99.90;;;;;;5072734;28;20177;-58
2023/04/27 05:23:03;;;;;;;0.00;0.00;;;7.00;99.90;;;;;;5072563;28;20225;-58
2023/04/27 05:25:32;;;;;;;0.00;0.00;;;7.10;99.90;;;;;;5072398;28;20235;-58
2023/04/27 05:27:58;;;;;;;0.00;0.00;;;7.20;99.90;;;;;;5072762;28;20314;-59
2023/04/27 05:30:24;;;;;;;0.00;0.00;;;7.40;99.90;;;;;;5072607;28;20663;-59
2023/04/27 05:32:49;;;;;;;0.00;0.00;;;7.50;99.90;;;;;;5072429;28;20185;-59
2023/04/27 05:35:15;;;;;;;0.00;0.00;;;7.60;99.90;;;;;;5072062;28;20231;-59
2023/04/27 05:37:41;;;;;;;0.00;0.00;;;7.70;99.90;;;;;;5072410;28;20260;-59
2023/04/27 05:40:08;;;;;;;0.00;0.00;;;7.70;99.90;;;;;;5072288;28;20226;-58
2023/04/27 05:42:34;;;;;;;0.00;0.00;;;7.80;99.90;;;;;;5072301;28;20496;-59
2023/04/27 05:45:01;;;;;;;0.00;0.00;;;7.90;99.90;;;;;;5072386;28;20667;-59
2023/04/27 05:47:26;;;;;;;0.40;0.25;;;8.00;99.90;;;;;;5072116;28;20181;-59
2023/04/27 05:49:52;;;;;;;0.00;0.00;;;8.10;99.90;;;;;;5072141;28;20169;-59
2023/04/27 05:52:20;;;;;;;0.00;0.00;;;8.20;99.90;;;;;;5087523;28;20229;-59
2023/04/27 05:54:49;;;;;;;0.00;0.00;;;8.30;99.90;;;;;;5092151;28;20199;-61
2023/04/27 05:57:16;;;;;;;0.00;0.00;;;8.30;99.90;;;;;;5092037;28;20176;-59
2023/04/27 05:59:42;;;;;;;0.00;0.00;;;8.40;99.90;;;;;;5092107;28;20183;-59
2023/04/27 06:02:08;;;;;;;0.00;0.00;;;8.40;99.90;;;;;;5091890;28;20244;-59
2023/04/27 06:04:34;;;;;;;0.55;0.20;;;8.50;99.90;;;;;;5091986;28;20215;-59
2023/04/27 06:07:00;;;;;;;0.00;0.00;;;8.60;99.90;;;;;;5092100;28;20187;-59
2023/04/27 06:09:25;;;;;;;0.10;0.10;;;8.70;99.90;;;;;;5091808;28;20496;-59
2023/04/27 06:11:51;;;;;;;0.00;0.00;;;8.70;99.90;;;;;;5092072;28;20184;-59
2023/04/27 06:14:16;;;;;;;0.00;0.00;;;8.80;99.90;;;;;;5091899;28;20263;-58
2023/04/27 06:16:42;;;;;;;0.00;0.00;;;8.90;99.90;;;;;;5091931;28;20164;-59
2023/04/27 06:19:08;;;;;;;0.00;0.00;;;8.90;99.90;;;;;;5091645;28;20574;-59
2023/04/27 06:21:34;;;;;;;0.00;0.00;;;9.00;99.90;;;;;;5091829;28;20182;-58
2023/04/27 06:24:00;;;;;;;0.00;0.00;;;9.10;99.90;;;;;;5091581;28;20281;-58
2023/04/27 06:26:26;;;;;;;0.00;0.00;;;9.30;99.90;;;;;;5091746;28;20199;-58
2023/04/27 06:28:51;;;;;;;0.00;0.00;;;9.40;99.90;;;;;;5091863;28;20267;-61
2023/04/27 06:31:17;;;;;;;0.00;0.00;;;9.60;99.90;;;;;;5091602;28;20176;-59
2023/04/27 06:33:42;;;;;;;0.00;0.00;;;9.70;99.90;;;;;;5091766;28;20233;-59
2023/04/27 06:36:08;;;;;;;0.80;0.80;;;9.80;99.90;;;;;;5090203;28;20199;-59
2023/04/27 06:38:34;;;;;;;0.10;0.10;;;9.90;99.90;;;;;;5091671;28;20210;-59
2023/04/27 06:40:59;;;;;;;0.00;0.00;;;10.00;99.90;;;;;;5091763;28;20168;-59
2023/04/27 06:43:25;;;;;;;0.00;0.00;;;10.10;99.80;;;;;;5091380;28;20183;-59
2023/04/27 06:45:51;;;;;;;0.00;0.00;;;10.20;99.70;;;;;;5090827;28;20354;-59
2023/04/27 06:48:16;;;;;;;0.00;0.00;;;10.30;99.40;;;;;;5091394;28;20202;-59
2023/04/27 06:50:42;;;;;;;0.00;0.00;;;10.40;99.20;;;;;;5091520;28;20176;-59
2023/04/27 06:53:09;;;;;;;0.30;0.30;;;10.50;99.40;;;;;;5091147;28;20168;-59
2023/04/27 06:55:34;;;;;;;0.00;0.00;;;10.60;99.40;;;;;;5091489;28;20268;-59
2023/04/27 06:58:01;;;;;;;0.00;0.00;;;10.60;98.90;;;;;;5091249;28;20309;-59
2023/04/27 07:00:26;;;;;;;0.00;0.00;;;10.80;99.00;;;;;;5091070;28;20248;-59
2023/04/27 07:02:52;;;;;;;0.00;0.00;;;10.90;99.00;;;;;;5091258;28;20207;-59
2023/04/27 07:05:18;;;;;;;0.00;0.00;;;11.20;98.90;;;;;;5091107;28;20876;-59
2023/04/27 07:07:43;;;;;;;0.00;0.00;;;11.40;98.50;;;;;;5091210;28;20255;-59
2023/04/27 07:10:09;;;;;;;0.00;0.00;;;11.70;98.10;;;;;;5090780;28;20175;-59
2023/04/27 07:12:35;;;;;;;0.00;0.00;;;11.90;97.60;;;;;;5091160;28;20498;-59
2023/04/27 07:15:03;;;;;;;0.00;0.00;;;12.00;97.40;;;;;;5091014;28;20631;-59
2023/04/27 07:17:29;;;;;;;1.08;0.90;;;12.20;97.10;;;;;;5090886;28;20321;-59
2023/04/27 07:19:54;;;;;;;0.00;0.00;;;12.40;96.90;;;;;;5091087;28;20255;-59
2023/04/27 07:22:20;;;;;;;0.00;0.00;;;12.60;96.40;;;;;;5090826;28;20191;-59
2023/04/27 07:24:46;;;;;;;0.43;0.30;;;12.90;96.40;;;;;;5090581;28;20716;-59
2023/04/27 07:27:12;;;;;;;0.00;0.00;;;13.10;96.00;;;;;;5090943;28;20575;-59
2023/04/27 07:29:38;;;;;;;0.10;0.10;;;13.20;95.70;;;;;;5091320;28;20511;-59
2023/04/27 07:32:07;;;;;;;0.00;0.00;;;13.50;95.20;;;;;;5091229;28;20193;-59
2023/04/27 07:34:33;;;;;;;0.10;0.10;;;13.70;94.90;;;;;;5091175;28;20186;-59
2023/04/27 07:37:00;;;;;;;0.00;0.00;;;13.90;94.70;;;;;;5091060;28;20665;-59
2023/04/27 07:39:26;;;;;;;0.28;0.28;;;14.20;94.60;;;;;;5090899;28;20188;-59
2023/04/27 07:41:51;;;;;;;0.00;0.00;;;14.70;93.90;;;;;;5091172;28;20180;-59
2023/04/27 07:44:18;;;;;;;0.00;0.00;;;15.10;92.60;;;;;;5090894;28;20194;-59
2023/04/27 07:46:46;;;;;;;0.00;0.00;;;15.50;91.80;;;;;;5091101;28;20241;-59
2023/04/27 07:49:12;;;;;;;0.00;0.00;;;15.70;91.10;;;;;;5090922;28;20638;-59
2023/04/27 07:51:38;;;;;;;0.08;0.08;;;15.80;90.70;;;;;;5090994;28;20222;-61
2023/04/27 07:54:04;;;;;;;0.00;0.00;;;16.10;90.20;;;;;;5091103;28;20192;-58
2023/04/27 07:56:30;;;;;;;0.00;0.00;;;16.30;89.80;;;;;;5091093;28;20211;-58
2023/04/27 07:58:55;;;;;;;0.00;0.00;;;17.00;90.00;;;;;;5095169;28;20572;-58
2023/04/27 08:01:21;;;;;;;0.00;0.00;;;18.00;87.90;;;;;;5094816;28;20187;-58
2023/04/27 08:03:46;;;;;;;0.00;0.00;;;18.90;83.40;;;;;;5094896;28;20226;-58
2023/04/27 08:06:12;;;;;;;0.00;0.00;;;19.80;77.40;;;;;;5094767;28;20290;-59
2023/04/27 08:08:37;;;;;;;0.00;0.00;;;20.50;73.40;;;;;;5094878;28;20234;-59
2023/04/27 08:11:03;;;;;;;0.00;0.00;;;21.00;71.20;;;;;;5094801;28;20211;-59
2023/04/27 08:13:29;;;;;;;0.20;0.00;;;21.60;68.00;;;;;;5094654;28;20176;-59
2023/04/27 08:15:57;;;;;;;0.00;0.00;;;22.00;65.60;;;;;;5093541;28;20222;-59
2023/04/27 08:18:24;;;;;;;0.20;0.20;;;22.30;63.80;;;;;;5094610;28;20179;-60
2023/04/27 08:20:49;;;;;;;0.00;0.00;;;22.40;62.50;;;;;;5094606;28;20172;-60
2023/04/27 08:23:15;;;;;;;0.00;0.00;;;22.50;60.90;;;;;;5094345;28;20220;-59
2023/04/27 08:25:41;;;;;;;0.00;0.00;;;22.70;60.60;;;;;;5094691;28;20208;-59
2023/04/27 08:28:06;;;;;;;0.00;0.00;;;22.90;58.80;;;;;;5094256;28;20180;-60
2023/04/27 08:30:32;;;;;;;0.00;0.00;;;22.90;58.90;;;;;;5094613;28;20179;-60
2023/04/27 08:32:57;;;;;;;0.00;0.00;;;23.10;58.00;;;;;;5094445;28;20578;-60
2023/04/27 08:35:23;;;;;;;0.00;0.00;;;23.20;57.80;;;;;;5094279;28;20531;-59
2023/04/27 08:37:48;;;;;;;0.00;0.00;;;23.20;57.00;;;;;;5094216;28;20642;-60
2023/04/27 08:40:14;;;;;;;0.00;0.00;;;23.40;57.30;;;;;;5094135;28;20619;-59
2023/04/27 08:42:52;;;;;;;0.00;0.00;;;23.50;56.80;;;;;;5094350;28;20176;-59
2023/04/27 08:45:19;;;;;;;0.00;0.00;;;23.60;56.50;;;;;;5094008;28;20589;-60
2023/04/27 08:47:45;;;;;;;0.00;0.00;;;23.80;55.20;;;;;;5094292;28;20179;-59
2023/04/27 08:50:11;;;;;;;0.13;0.13;;;23.60;54.70;;;;;;5094017;28;20180;-60
2023/04/27 08:52:37;;;;;;;0.00;0.00;;;23.60;54.70;;;;;;5093998;28;20180;-59
2023/04/27 08:55:03;;;;;;;0.00;0.00;;;23.60;54.80;;;;;;5093957;28;20643;-59
2023/04/27 08:57:29;;;;;;;0.00;0.00;;;23.70;54.60;;;;;;5093004;28;20685;-59
2023/04/27 09:00:06;;;;;;;0.00;0.00;;;23.70;55.40;;;;;;5094059;28;20176;-60
2023/04/27 09:02:32;;;;;;;0.00;0.00;;;23.60;54.00;;;;;;5093984;28;20224;-60
2023/04/27 09:04:58;;;;;;;0.10;0.10;;;23.50;53.10;;;;;;5093781;28;20212;-60
2023/04/27 09:07:23;;;;;;;0.00;0.00;;;23.40;52.90;;;;;;5093791;28;20512;-61
2023/04/27 09:09:49;;;;;;;0.00;0.00;;;23.40;52.40;;;;;;5092786;28;20180;-59
2023/04/27 09:12:19;;;;;;;0.00;0.00;;;23.20;52.90;;;;;;5093744;28;20169;-59
2023/04/27 09:14:58;;;;;;;0.00;0.00;;;23.00;53.10;;;;;;5093618;28;20548;-58
2023/04/27 09:17:29;;;;;;;0.05;0.05;;;23.10;54.00;;;;;;5093469;28;20642;-59
2023/04/27 09:20:09;;;;;;;0.00;0.00;;;23.00;54.00;;;;;;5092409;28;20180;-58
2023/04/27 09:22:56;;;;;;;0.00;0.00;;;23.00;52.70;;;;;;5093422;28;20183;-59
2023/04/27 09:25:30;;;;;;;0.00;0.00;;;23.10;52.80;;;;;;5093280;28;20257;-59
2023/04/27 09:27:58;;;;;;;0.00;0.00;;;23.10;52.00;;;;;;5093469;28;20528;-59
2023/04/27 09:30:24;;;;;;;0.00;0.00;;;23.10;52.40;;;;;;5093273;28;20183;-59
2023/04/27 09:33:00;;;;;;;0.00;0.00;;;23.30;52.10;;;;;;5093348;28;20176;-59
2023/04/27 09:35:28;;;;;;;0.00;0.00;;;23.20;52.40;;;;;;5093022;28;20171;-59
2023/04/27 09:37:55;;;;;;;0.00;0.00;;;23.10;51.10;;;;;;5093173;28;20635;-59
2023/04/27 09:40:26;;;;;;;0.00;0.00;;;23.00;51.10;;;;;;5092929;28;20700;-59
2023/04/27 09:42:54;;;;;;;0.00;0.00;;;23.10;51.90;;;;;;5093216;28;20282;-59
2023/04/27 09:45:20;;;;;;;0.00;0.00;;;23.30;50.30;;;;;;5092839;28;20678;-59
2023/04/27 09:47:45;;;;;;;0.00;0.00;;;23.10;51.10;;;;;;5092851;28;20176;-59
2023/04/27 09:50:14;;;;;;;0.00;0.00;;;23.40;50.70;;;;;;5092810;28;20168;-59
2023/04/27 09:52:40;;;;;;;0.00;0.00;;;23.20;49.10;;;;;;5092794;28;20226;-58
2023/04/27 09:55:11;;;;;;;0.40;0.40;;;23.00;49.40;;;;;;5092680;28;20176;-58
2023/04/27 09:57:52;;;;;;;0.10;0.10;;;23.20;49.60;;;;;;5092954;28;20183;-59
2023/04/27 10:00:39;;;;;;;0.00;0.00;;;23.40;47.70;;;;;;5092696;28;20175;-59
2023/04/27 10:03:28;;;;;;;0.00;0.00;;;23.40;48.20;;;;;;5092621;28;20175;-59
2023/04/27 10:06:27;;;;;;;0.00;0.00;;;23.40;48.50;;;;;;5092507;28;20671;-59
2023/04/27 10:08:55;;;;;;;0.00;0.00;;;23.50;48.30;;;;;;5092604;28;20168;-59
2023/04/27 10:11:32;;;;;;;0.00;0.00;;;23.80;47.80;;;;;;5092331;28;20615;-59
2023/04/27 10:14:04;;;;;;;0.00;0.00;;;24.00;45.80;;;;;;5092491;28;20180;-60
2023/04/27 10:16:59;;;;;;;0.00;0.00;;;24.30;46.40;;;;;;5092608;28;20176;-59
2023/04/27 10:19:25;;;;;;;0.08;0.08;;;24.50;43.90;;;;;;5092495;28;20183;-60
2023/04/27 10:21:52;;;;;;;0.00;0.00;;;24.70;45.20;;;;;;5092395;28;20255;-60
2023/04/27 10:24:17;;;;;;;0.00;0.00;;;24.90;44.90;;;;;;5091965;28;20219;-59
2023/04/27 10:26:47;;;;;;;0.00;0.00;;;24.80;43.50;;;;;;5092141;28;20659;-59
2023/04/27 10:29:15;;;;;;;0.00;0.00;;;24.40;42.20;;;;;;5092017;28;20692;-59
2023/04/27 10:31:46;;;;;;;0.00;0.00;;;24.10;44.40;;;;;;5092208;28;20176;-59
2023/04/27 10:34:16;;;;;;;0.00;0.00;;;24.00;44.20;;;;;;5091861;28;20182;-59
2023/04/27 10:36:42;;;;;;;0.00;0.00;;;23.70;44.60;;;;;;5091976;28;20716;-60
2023/04/27 10:39:18;;;;;;;0.00;0.00;;;23.40;44.10;;;;;;5091831;28;20338;-59
2023/04/27 10:41:52;;;;;;;0.00;0.00;;;23.10;45.30;;;;;;5091968;28;20515;-59
2023/04/27 10:44:28;;;;;;;0.00;0.00;;;23.10;46.60;;;;;;5091887;28;20229;-59
2023/04/27 10:46:55;;;;;;;0.00;0.00;;;23.00;45.50;;;;;;5092047;28;20187;-59
2023/04/27 10:49:21;;;;;;;0.00;0.00;;;23.30;46.60;;;;;;5091680;28;20251;-59
2023/04/27 10:51:49;;;;;;;0.00;0.00;;;23.60;46.40;;;;;;5091690;28;20172;-59
2023/04/27 10:54:15;;;;;;;0.00;0.00;;;23.80;45.80;;;;;;5091650;28;20168;-59
2023/04/27 10:56:41;;;;;;;0.10;0.10;;;23.90;44.30;;;;;;5091690;28;20179;-59
2023/04/27 10:59:07;;;;;;;0.00;0.00;;;23.80;46.00;;;;;;5091477;28;20176;-59
2023/04/27 11:01:33;;;;;;;0.10;0.10;;;23.50;46.20;;;;;;5091600;28;20192;-59
2023/04/27 11:03:59;;;;;;;0.00;0.00;;;23.50;45.40;;;;;;5091631;28;20176;-59
2023/04/27 11:06:27;;;;;;;0.00;0.00;;;23.50;44.80;;;;;;5091461;28;20246;-59
2023/04/27 11:08:53;;;;;;;0.00;0.00;;;23.50;44.90;;;;;;5091637;28;20172;-59
2023/04/27 11:11:19;;;;;;;0.00;0.00;;;23.40;44.60;;;;;;5091463;28;20206;-60
2023/04/27 11:13:48;;;;;;;0.00;0.00;;;23.40;43.90;;;;;;5091388;28;20623;-60
2023/04/27 11:16:15;;;;;;;0.00;0.00;;;23.20;44.20;;;;;;5091328;28;20183;-60
2023/04/27 11:18:41;;;;;;;0.00;0.00;;;23.10;44.40;;;;;;5091538;28;20183;-60
2023/04/27 11:21:16;;;;;;;0.00;0.00;;;22.90;44.90;;;;;;5091287;28;20176;-60
2023/04/27 11:23:42;;;;;;;0.00;0.00;;;22.10;44.40;;;;;;5091261;28;20219;-60
2023/04/27 11:26:09;;;;;;;0.00;0.00;;;21.70;45.20;;;;;;5090992;28;20678;-60
2023/04/27 11:28:35;;;;;;;0.03;0.03;;;21.50;46.00;;;;;;5091324;28;20572;-60
2023/04/27 11:31:00;;;;;;;0.00;0.00;;;21.30;46.50;;;;;;5091264;28;20180;-60
2023/04/27 11:33:27;;;;;;;0.00;0.00;;;21.10;46.60;;;;;;5090648;28;20623;-60
2023/04/27 11:35:53;;;;;;;0.00;0.00;;;21.00;46.90;;;;;;5091227;28;20222;-60
2023/04/27 11:38:19;;;;;;;0.00;0.00;;;20.80;47.10;;;;;;5091020;28;20183;-60
2023/04/27 11:41:05;;;;;;;0.10;0.10;;;21.00;47.50;;;;;;5091144;28;20168;-60
2023/04/27 11:43:31;;;;;;;0.00;0.00;;;20.70;46.80;;;;;;5091203;28;20172;-60
2023/04/27 11:45:57;;;;;;;0.00;0.00;;;20.90;48.40;;;;;;5091063;28;20766;-60
2023/04/27 11:48:24;;;;;;;0.00;0.00;;;21.00;48.40;;;;;;5090898;28;20172;-60
2023/04/27 11:50:50;;;;;;;0.00;0.00;;;21.00;49.20;;;;;;5090914;28;20172;-60
2023/04/27 11:53:15;;;;;;;1.40;0.10;;;20.90;49.60;;;;;;5090811;28;20183;-58
2023/04/27 11:55:42;;;;;;;0.00;0.00;;;20.80;48.50;;;;;;5090920;28;20181;-59
2023/04/27 11:58:14;;;;;;;0.00;0.00;;;21.30;48.40;;;;;;5090685;28;20201;-59
2023/04/27 12:00:40;;;;;;;0.00;0.00;;;21.70;49.30;;;;;;5085170;28;20185;-59
2023/04/27 12:03:06;;;;;;;0.00;0.00;;;22.00;47.20;;;;;;5070583;28;20184;-59
2023/04/27 12:05:32;;;;;;;0.00;0.00;;;22.40;47.90;;;;;;5070747;28;20299;-58
2023/04/27 12:07:57;;;;;;;0.00;0.00;;;22.40;46.80;;;;;;5070800;28;20310;-59
2023/04/27 12:10:23;;;;;;;0.00;0.00;;;22.50;46.80;;;;;;5070571;28;20282;-58
2023/04/27 12:12:49;;;;;;;0.00;0.00;;;22.50;46.80;;;;;;5070532;28;20169;-58
2023/04/27 12:15:15;;;;;;;0.00;0.00;;;22.50;47.80;;;;;;5070531;28;20275;-58
2023/04/27 12:17:40;;;;;;;0.00;0.00;;;22.70;47.70;;;;;;5070604;28;20176;-59
2023/04/27 12:20:07;;;;;;;0.00;0.00;;;22.90;47.00;;;;;;5070465;28;20177;-59
2023/04/27 12:22:32;;;;;;;0.00;0.00;;;23.10;46.90;;;;;;5070347;28;20172;-58
2023/04/27 12:24:58;;;;;;;0.00;0.00;;;23.40;46.10;;;;;;5070321;28;20224;-59
2023/04/27 12:27:25;;;;;;;0.00;0.00;;;23.50;46.50;;;;;;5070336;28;20564;-58
2023/04/27 12:29:53;;;;;;;0.00;0.00;;;23.30;46.30;;;;;;5070401;28;20191;-58
2023/04/27 12:32:18;;;;;;;0.00;0.00;;;22.80;46.00;;;;;;5070316;28;20739;-59
2023/04/27 12:34:45;;;;;;;0.00;0.00;;;22.10;45.50;;;;;;5070392;28;20260;-58
2023/04/27 12:37:10;;;;;;;0.00;0.00;;;22.00;47.50;;;;;;5070181;28;20262;-58
2023/04/27 12:39:36;;;;;;;0.00;0.00;;;21.90;47.30;;;;;;5070429;28;20623;-58
2023/04/27 12:42:02;;;;;;;0.40;0.40;;;22.00;48.10;;;;;;5070167;28;20185;-59
2023/04/27 12:44:28;;;;;;;0.00;0.00;;;21.80;47.90;;;;;;5071635;28;20173;-58
2023/04/27 12:46:53;;;;;;;0.00;0.00;;;21.20;46.40;;;;;;5073978;28;20179;-58
2023/04/27 12:49:19;;;;;;;0.05;0.05;;;21.20;49.20;;;;;;5073716;28;21360;-58
2023/04/27 12:51:46;;;;;;;0.00;0.00;;;21.20;48.50;;;;;;5084898;28;20188;-58